createdAt,value
2023-05-15T00:03:45.437Z,5.30
2023-05-15T00:08:48.366Z,3.70
2023-05-15T00:13:51.302Z,7.70
2023-05-15T00:18:54.183Z,6.10
2023-05-15T00:23:58.462Z,3.70
2023-05-15T00:29:01.201Z,5.60
2023-05-15T00:34:04.073Z,7.10
2023-05-15T00:39:07.051Z,6.80
2023-05-15T00:44:09.800Z,5.20
2023-05-15T00:49:13.800Z,4.00
2023-05-15T00:54:16.896Z,5.30
2023-05-15T00:59:19.716Z,3.10
2023-05-15T01:04:22.875Z,5.70
2023-05-15T01:09:26.063Z,4.70
2023-05-15T01:14:28.884Z,4.60
2023-05-15T01:19:31.790Z,5.50
2023-05-15T01:25:00.102Z,4.40
2023-05-15T01:30:22.565Z,4.40
2023-05-15T01:35:39.867Z,3.80
2023-05-15T01:40:43.113Z,4.20
2023-05-15T01:45:46.223Z,5.10
2023-05-15T01:50:49.595Z,4.70
2023-05-15T01:55:52.318Z,6.30
2023-05-15T02:00:55.450Z,4.30
2023-05-15T02:05:58.258Z,5.10
2023-05-15T02:11:01.591Z,3.70
2023-05-15T02:16:04.684Z,5.00
2023-05-15T02:21:07.717Z,5.80
2023-05-15T02:26:29.043Z,4.00
2023-05-15T02:32:00.756Z,5.60
2023-05-15T02:37:03.687Z,5.20
2023-05-15T02:42:07.569Z,5.10
2023-05-15T02:47:10.386Z,4.80
2023-05-15T02:52:13.129Z,5.80
2023-05-15T02:57:16.030Z,4.80
2023-05-15T03:02:18.920Z,6.00
2023-05-15T03:07:21.903Z,4.20
2023-05-15T03:12:26.013Z,3.60
2023-05-15T03:17:28.943Z,5.00
2023-05-15T03:22:31.842Z,5.90
2023-05-15T03:27:34.586Z,3.60
2023-05-15T03:32:37.728Z,4.00
2023-05-15T03:37:40.510Z,5.00
2023-05-15T03:42:43.273Z,5.00
2023-05-15T03:47:46.406Z,5.60
2023-05-15T03:52:49.134Z,5.60
2023-05-15T03:57:52.047Z,5.30
2023-05-15T04:02:54.992Z,4.40
2023-05-15T04:07:57.990Z,9.30
2023-05-15T04:13:00.741Z,5.30
2023-05-15T04:18:03.656Z,5.10
2023-05-15T04:23:06.550Z,5.20
2023-05-15T04:28:09.303Z,7.20
2023-05-15T04:33:17.621Z,4.40
2023-05-15T04:43:23.179Z,5.30
2023-05-15T04:48:27.622Z,5.00
2023-05-15T04:53:30.740Z,5.90
2023-05-15T04:58:53.529Z,5.20
2023-05-15T05:03:56.350Z,6.20
2023-05-15T05:09:01.333Z,5.60
2023-05-15T05:14:04.088Z,6.90
2023-05-15T05:19:07.115Z,5.30
2023-05-15T05:24:10.071Z,10.10
2023-05-15T05:29:12.791Z,4.90
2023-05-15T05:34:15.607Z,4.80
2023-05-15T05:39:21.407Z,8.60
2023-05-15T05:44:24.736Z,6.40
2023-05-15T05:49:27.801Z,5.80
2023-05-15T05:54:30.616Z,6.40
2023-05-15T05:59:33.509Z,6.40
2023-05-15T06:04:36.329Z,7.00
2023-05-15T06:09:39.259Z,7.90
2023-05-15T06:14:42.176Z,4.80
2023-05-15T06:19:44.938Z,7.20
2023-05-15T06:24:47.712Z,4.70
2023-05-15T06:29:50.519Z,5.80
2023-05-15T06:34:53.289Z,9.10
2023-05-15T06:39:56.518Z,9.20
2023-05-15T06:44:59.704Z,6.50
2023-05-15T06:50:02.619Z,7.00
2023-05-15T06:55:06.029Z,5.90
2023-05-15T07:00:10.117Z,6.70
2023-05-15T07:05:14.550Z,5.80
2023-05-15T07:10:17.760Z,7.10
2023-05-15T07:15:20.668Z,7.00
2023-05-15T07:20:25.866Z,8.40
2023-05-15T07:25:30.332Z,9.20
2023-05-15T07:30:33.077Z,13.60
2023-05-15T07:35:35.918Z,6.20
2023-05-15T07:40:38.708Z,7.70
2023-05-15T07:45:41.671Z,10.70
2023-05-15T07:50:46.386Z,8.90
2023-05-15T07:55:49.418Z,7.30
2023-05-15T08:00:52.166Z,9.00
2023-05-15T08:05:55.094Z,8.80
2023-05-15T08:10:57.949Z,8.60
2023-05-15T08:16:00.918Z,9.20
2023-05-15T08:21:04.768Z,9.90
2023-05-15T08:26:07.836Z,8.70
2023-05-15T08:31:10.717Z,8.80
2023-05-15T08:36:14.342Z,7.60
2023-05-15T08:41:40.498Z,7.70
2023-05-15T08:46:44.095Z,9.30
2023-05-15T08:51:48.178Z,9.00
2023-05-15T08:56:50.979Z,9.00
2023-05-15T09:01:53.891Z,8.10
2023-05-15T09:06:57.170Z,9.40
2023-05-15T09:12:01.741Z,7.30
2023-05-15T09:17:04.776Z,10.10
2023-05-15T09:22:24.484Z,8.60
2023-05-15T09:27:28.845Z,10.70
2023-05-15T09:32:31.694Z,8.90
2023-05-15T09:37:34.560Z,9.30
2023-05-15T09:42:38.749Z,9.70
2023-05-15T09:47:43.906Z,8.70
2023-05-15T09:52:47.117Z,9.10
2023-05-15T09:58:13.432Z,6.40
2023-05-15T10:03:21.000Z,7.60
2023-05-15T10:08:28.538Z,8.90
2023-05-15T10:13:31.927Z,6.60
2023-05-15T10:18:34.703Z,8.30
2023-05-15T10:23:38.068Z,8.80
2023-05-15T10:28:41.827Z,8.40
2023-05-15T10:33:45.743Z,8.50
2023-05-15T10:38:48.602Z,7.40
2023-05-15T10:43:56.044Z,7.60
2023-05-15T10:49:01.569Z,8.90
2023-05-15T10:54:04.573Z,6.90
2023-05-15T10:59:09.808Z,8.70
2023-05-15T11:04:18.923Z,7.30
2023-05-15T11:09:22.320Z,7.20
2023-05-15T11:14:41.721Z,8.20
2023-05-15T11:20:07.852Z,8.70
2023-05-15T11:25:16.978Z,7.10
2023-05-15T11:30:23.098Z,7.20
2023-05-15T11:35:47.171Z,8.50
2023-05-15T11:40:52.814Z,8.70
2023-05-15T11:46:12.869Z,9.10
2023-05-15T11:51:21.858Z,8.10
2023-05-15T11:56:30.400Z,7.00
2023-05-15T12:06:51.617Z,6.40
2023-05-15T12:11:55.760Z,7.40
2023-05-15T12:17:04.766Z,8.10
2023-05-15T12:22:18.266Z,6.90
2023-05-15T12:27:27.467Z,7.80
2023-05-15T12:32:36.947Z,8.20
2023-05-15T12:37:44.455Z,6.90
2023-05-15T12:42:57.694Z,8.70
2023-05-15T12:48:00.506Z,9.70
2023-05-15T12:53:05.249Z,7.40
2023-05-15T12:58:10.625Z,7.90
2023-05-15T13:03:14.742Z,8.10
2023-05-15T13:08:20.576Z,11.90
2023-05-15T13:13:24.353Z,8.60
2023-05-15T13:18:27.118Z,8.90
2023-05-15T13:23:29.953Z,9.90
2023-05-15T13:28:34.191Z,8.60
2023-05-15T13:33:37.693Z,9.00
2023-05-15T13:38:40.480Z,9.40
2023-05-15T13:43:43.275Z,8.50
2023-05-15T13:48:46.220Z,8.10
2023-05-15T13:53:49.153Z,10.30
2023-05-15T13:58:51.957Z,9.80
2023-05-15T14:03:55.889Z,10.30
2023-05-15T14:09:01.326Z,10.00
2023-05-15T14:14:04.177Z,9.10
2023-05-15T14:19:14.334Z,8.90
2023-05-15T14:24:17.184Z,10.20
2023-05-15T14:29:20.339Z,12.40
2023-05-15T14:34:23.567Z,9.40
2023-05-15T14:39:26.432Z,9.10
2023-05-15T14:44:29.587Z,11.20
2023-05-15T14:49:32.428Z,11.40
2023-05-15T14:54:37.913Z,9.00
2023-05-15T14:59:40.843Z,9.50
2023-05-15T15:04:43.679Z,8.90
2023-05-15T15:09:46.580Z,9.40
2023-05-15T15:14:49.384Z,14.20
2023-05-15T15:19:52.181Z,9.20
2023-05-15T15:24:54.961Z,11.40
2023-05-15T15:29:57.790Z,9.70
2023-05-15T15:35:00.709Z,9.60
2023-05-15T15:47:48.833Z,9.60
2023-05-15T16:01:40.715Z,12.50
2023-05-15T16:06:43.750Z,8.50
2023-05-15T16:11:46.495Z,10.60
2023-05-15T16:16:49.762Z,8.30
2023-05-15T16:21:52.693Z,9.60
2023-05-15T16:26:56.618Z,8.10
2023-05-15T16:31:59.610Z,8.80
2023-05-15T16:37:02.780Z,8.10
2023-05-15T16:42:08.598Z,8.00
2023-05-15T16:47:12.673Z,8.20
2023-05-15T16:52:16.183Z,7.80
2023-05-15T16:57:19.078Z,11.70
2023-05-15T17:02:21.861Z,8.90
2023-05-15T17:07:24.823Z,8.30
2023-05-15T17:12:27.752Z,9.10
2023-05-15T17:17:30.640Z,8.30
2023-05-15T17:22:33.548Z,9.50
2023-05-15T17:27:41.196Z,10.10
2023-05-15T17:32:44.105Z,10.70
2023-05-15T17:37:46.924Z,10.00
2023-05-15T17:42:49.707Z,9.20
2023-05-15T17:47:52.559Z,9.80
2023-05-15T17:52:55.390Z,10.20
2023-05-15T17:58:04.517Z,10.20
2023-05-15T18:03:08.293Z,10.10
2023-05-15T18:08:11.333Z,11.30
2023-05-15T18:13:14.130Z,9.90
2023-05-15T18:18:16.884Z,9.40
2023-05-15T18:23:23.020Z,10.30
2023-05-15T18:28:25.812Z,10.30
2023-05-15T18:33:28.712Z,9.10
2023-05-15T18:38:31.534Z,8.90
2023-05-15T18:43:34.391Z,9.50
2023-05-15T18:48:37.516Z,12.20
2023-05-15T18:53:40.410Z,13.40
2023-05-15T18:58:43.312Z,10.00
2023-05-15T19:03:46.115Z,10.10
2023-05-15T19:08:48.955Z,7.50
2023-05-15T19:13:51.767Z,5.10
2023-05-15T19:18:55.608Z,4.80
2023-05-15T19:23:58.408Z,4.70
2023-05-15T19:29:01.271Z,5.60
2023-05-15T19:34:04.112Z,7.00
2023-05-15T19:39:06.941Z,8.10
2023-05-15T19:44:10.184Z,7.30
2023-05-15T19:49:12.984Z,7.40
2023-05-15T19:54:16.712Z,9.30
2023-05-15T19:59:19.600Z,10.40
2023-05-15T20:04:22.432Z,11.60
2023-05-15T20:09:25.174Z,10.00
2023-05-15T20:14:27.944Z,9.50
2023-05-15T20:19:31.589Z,10.00
2023-05-15T20:24:34.799Z,8.70
2023-05-15T20:29:38.848Z,9.10
2023-05-15T20:34:46.732Z,9.30
2023-05-15T20:39:49.526Z,8.60
2023-05-15T20:44:52.579Z,10.10
2023-05-15T20:49:55.391Z,8.40
2023-05-15T20:54:58.335Z,9.00
2023-05-15T21:00:01.222Z,10.00
2023-05-15T21:05:04.637Z,7.70
2023-05-15T21:10:11.576Z,7.50
2023-05-15T21:15:14.594Z,7.40
2023-05-15T21:20:17.378Z,10.10
2023-05-15T21:25:20.354Z,9.10
2023-05-15T21:30:23.375Z,7.40
2023-05-15T21:35:28.928Z,8.00
2023-05-15T21:40:31.896Z,6.80
2023-05-15T21:45:34.669Z,6.00
2023-05-15T21:50:37.376Z,7.20
2023-05-15T21:55:40.164Z,5.20
2023-05-15T22:00:42.909Z,4.40
2023-05-15T22:05:45.927Z,5.40
2023-05-15T22:10:49.093Z,5.10
2023-05-15T22:15:53.172Z,5.00
2023-05-15T22:20:56.286Z,4.20
2023-05-15T22:25:59.089Z,4.10
2023-05-15T22:31:03.123Z,4.60
2023-05-15T22:36:06.358Z,4.50
2023-05-15T22:41:09.223Z,5.40
2023-05-15T22:46:12.105Z,6.10
2023-05-15T22:51:16.480Z,5.50
2023-05-15T22:56:19.236Z,6.50
2023-05-15T23:01:22.239Z,6.10
2023-05-15T23:06:25.070Z,5.80
2023-05-15T23:11:28.348Z,5.50
2023-05-15T23:16:31.816Z,5.70
2023-05-15T23:21:34.518Z,5.00
2023-05-15T23:26:38.096Z,4.60
2023-05-15T23:31:43.910Z,6.70
2023-05-15T23:36:46.731Z,5.10
2023-05-15T23:41:49.561Z,5.40
2023-05-15T23:46:52.366Z,5.00
2023-05-15T23:51:55.224Z,5.10
2023-05-15T23:56:58.014Z,6.70
